East Irvington, New York
Current Conditions -  °F | °C
As of 5:56 PM on Wednesday 17 Dec 2014 (Local Time) from KHPN Reporting Station
Broken Clouds Broken Clouds  
Wind Chill: 38°   Ceiling: 6000
Heat Index: 45°   Visibility: 10mi
Dew Point: 33°   Wind: 16mph
Humidity: 63%   Direction: 300°WNW
Pressure: 29.84"   Gusts: NA
Location:  41.0402°N, 73.8532°W
Report Text: KHPN 172256Z 30014KT 10SM BKN060 07/01 A2984 RMK AO2 SLP107 T00720006
Loading
Personal Weather Stations






























Interactive Weather Map New forecast layout! Learn more

10-Day Weather Forecast

Advertisements
Track Severe Weather on mobile